sensor_id;sensor_type;location;lat;lon;timestamp;P1;durP1;ratioP1;P2;durP2;ratioP2
63599;SDS011;49747;51.334;6.830;2022-12-18T00:01:15;10.43;;;4.88;;
63599;SDS011;49747;51.334;6.830;2022-12-18T00:03:45;9.32;;;4.93;;
63599;SDS011;49747;51.334;6.830;2022-12-18T00:06:13;8.55;;;4.85;;
63599;SDS011;49747;51.334;6.830;2022-12-18T00:08:40;11.25;;;4.82;;
63599;SDS011;49747;51.334;6.830;2022-12-18T00:11:08;9.77;;;5.30;;
63599;SDS011;49747;51.334;6.830;2022-12-18T00:13:38;9.80;;;5.38;;
63599;SDS011;49747;51.334;6.830;2022-12-18T00:16:07;9.60;;;5.03;;
63599;SDS011;49747;51.334;6.830;2022-12-18T00:18:35;8.95;;;4.97;;
63599;SDS011;49747;51.334;6.830;2022-12-18T00:21:04;10.57;;;5.25;;
63599;SDS011;49747;51.334;6.830;2022-12-18T00:23:32;9.68;;;5.28;;
63599;SDS011;49747;51.334;6.830;2022-12-18T00:26:02;9.70;;;4.90;;
63599;SDS011;49747;51.334;6.830;2022-12-18T00:28:31;11.90;;;5.60;;
63599;SDS011;49747;51.334;6.830;2022-12-18T00:31:05;9.75;;;4.90;;
63599;SDS011;49747;51.334;6.830;2022-12-18T00:33:33;9.57;;;5.40;;
63599;SDS011;49747;51.334;6.830;2022-12-18T00:36:02;9.10;;;4.65;;
63599;SDS011;49747;51.334;6.830;2022-12-18T00:38:33;10.13;;;5.35;;
63599;SDS011;49747;51.334;6.830;2022-12-18T00:41:00;8.52;;;4.68;;
63599;SDS011;49747;51.334;6.830;2022-12-18T00:43:27;8.63;;;4.60;;
63599;SDS011;49747;51.334;6.830;2022-12-18T00:45:54;9.63;;;4.88;;
63599;SDS011;49747;51.334;6.830;2022-12-18T00:48:21;10.35;;;5.65;;
63599;SDS011;49747;51.334;6.830;2022-12-18T00:50:48;10.07;;;5.75;;
63599;SDS011;49747;51.334;6.830;2022-12-18T00:53:16;9.90;;;5.10;;
63599;SDS011;49747;51.334;6.830;2022-12-18T00:55:43;8.68;;;5.00;;
63599;SDS011;49747;51.334;6.830;2022-12-18T00:58:12;10.23;;;5.28;;
63599;SDS011;49747;51.334;6.830;2022-12-18T01:00:40;8.65;;;5.03;;
63599;SDS011;49747;51.334;6.830;2022-12-18T01:03:11;11.30;;;5.53;;
63599;SDS011;49747;51.334;6.830;2022-12-18T01:05:41;8.75;;;5.05;;
63599;SDS011;49747;51.334;6.830;2022-12-18T01:08:08;9.48;;;5.60;;
63599;SDS011;49747;51.334;6.830;2022-12-18T01:10:35;9.88;;;4.80;;
63599;SDS011;49747;51.334;6.830;2022-12-18T01:13:02;9.02;;;5.15;;
63599;SDS011;49747;51.334;6.830;2022-12-18T01:15:29;8.48;;;4.93;;
63599;SDS011;49747;51.334;6.830;2022-12-18T01:17:55;9.23;;;5.10;;
63599;SDS011;49747;51.334;6.830;2022-12-18T01:20:22;11.35;;;5.45;;
63599;SDS011;49747;51.334;6.830;2022-12-18T01:22:48;10.88;;;5.38;;
63599;SDS011;49747;51.334;6.830;2022-12-18T01:25:15;10.35;;;4.65;;
63599;SDS011;49747;51.334;6.830;2022-12-18T01:27:42;9.38;;;5.30;;
63599;SDS011;49747;51.334;6.830;2022-12-18T01:30:09;8.05;;;4.80;;
63599;SDS011;49747;51.334;6.830;2022-12-18T01:32:36;9.15;;;5.22;;
63599;SDS011;49747;51.334;6.830;2022-12-18T01:35:03;8.82;;;5.00;;
63599;SDS011;49747;51.334;6.830;2022-12-18T01:37:30;11.23;;;5.25;;
63599;SDS011;49747;51.334;6.830;2022-12-18T01:39:56;8.88;;;5.15;;
63599;SDS011;49747;51.334;6.830;2022-12-18T01:42:23;9.20;;;4.97;;
63599;SDS011;49747;51.334;6.830;2022-12-18T01:44:54;8.50;;;4.97;;
63599;SDS011;49747;51.334;6.830;2022-12-18T01:47:39;8.93;;;4.40;;
63599;SDS011;49747;51.334;6.830;2022-12-18T01:52:41;11.60;;;4.93;;
63599;SDS011;49747;51.334;6.830;2022-12-18T01:57:37;9.57;;;5.15;;
63599;SDS011;49747;51.334;6.830;2022-12-18T02:00:07;9.55;;;5.15;;
63599;SDS011;49747;51.334;6.830;2022-12-18T02:02:41;8.25;;;4.72;;
63599;SDS011;49747;51.334;6.830;2022-12-18T02:05:11;10.80;;;5.38;;
63599;SDS011;49747;51.334;6.830;2022-12-18T02:10:22;9.63;;;5.07;;
63599;SDS011;49747;51.334;6.830;2022-12-18T02:15:31;9.90;;;5.47;;
63599;SDS011;49747;51.334;6.830;2022-12-18T02:18:11;9.10;;;5.28;;
63599;SDS011;49747;51.334;6.830;2022-12-18T02:20:46;9.57;;;5.30;;
63599;SDS011;49747;51.334;6.830;2022-12-18T02:23:30;8.90;;;4.68;;
63599;SDS011;49747;51.334;6.830;2022-12-18T02:26:18;8.50;;;5.30;;
63599;SDS011;49747;51.334;6.830;2022-12-18T02:28:55;7.55;;;4.50;;
63599;SDS011;49747;51.334;6.830;2022-12-18T02:31:29;10.65;;;4.72;;
63599;SDS011;49747;51.334;6.830;2022-12-18T02:34:02;8.18;;;4.10;;
63599;SDS011;49747;51.334;6.830;2022-12-18T02:36:36;10.38;;;5.85;;
63599;SDS011;49747;51.334;6.830;2022-12-18T02:39:07;10.57;;;5.28;;
63599;SDS011;49747;51.334;6.830;2022-12-18T02:41:42;8.35;;;5.25;;
63599;SDS011;49747;51.334;6.830;2022-12-18T02:44:11;8.02;;;4.63;;
63599;SDS011;49747;51.334;6.830;2022-12-18T02:46:40;8.85;;;5.03;;
63599;SDS011;49747;51.334;6.830;2022-12-18T02:49:21;9.40;;;4.93;;
63599;SDS011;49747;51.334;6.830;2022-12-18T02:52:00;10.38;;;5.00;;
63599;SDS011;49747;51.334;6.830;2022-12-18T02:54:39;10.07;;;5.10;;
63599;SDS011;49747;51.334;6.830;2022-12-18T02:57:20;9.00;;;4.82;;
63599;SDS011;49747;51.334;6.830;2022-12-18T03:02:37;9.60;;;4.82;;
63599;SDS011;49747;51.334;6.830;2022-12-18T03:05:30;8.52;;;4.75;;
63599;SDS011;49747;51.334;6.830;2022-12-18T03:08:03;9.40;;;5.22;;
63599;SDS011;49747;51.334;6.830;2022-12-18T03:10:42;8.20;;;4.30;;
63599;SDS011;49747;51.334;6.830;2022-12-18T03:13:18;8.13;;;4.65;;
63599;SDS011;49747;51.334;6.830;2022-12-18T03:15:51;11.70;;;4.93;;
63599;SDS011;49747;51.334;6.830;2022-12-18T03:18:26;8.27;;;4.63;;
63599;SDS011;49747;51.334;6.830;2022-12-18T03:20:59;9.93;;;4.65;;
63599;SDS011;49747;51.334;6.830;2022-12-18T03:23:29;9.32;;;5.03;;
63599;SDS011;49747;51.334;6.830;2022-12-18T03:26:04;9.20;;;4.90;;
63599;SDS011;49747;51.334;6.830;2022-12-18T03:28:38;8.70;;;4.80;;
63599;SDS011;49747;51.334;6.830;2022-12-18T03:31:09;9.48;;;5.53;;
63599;SDS011;49747;51.334;6.830;2022-12-18T03:33:38;8.90;;;5.20;;
63599;SDS011;49747;51.334;6.830;2022-12-18T03:36:12;7.65;;;4.30;;
63599;SDS011;49747;51.334;6.830;2022-12-18T03:38:40;7.72;;;4.30;;
63599;SDS011;49747;51.334;6.830;2022-12-18T03:46:38;9.32;;;4.35;;
63599;SDS011;49747;51.334;6.830;2022-12-18T03:49:16;6.75;;;4.35;;
63599;SDS011;49747;51.334;6.830;2022-12-18T03:51:52;7.97;;;3.85;;
63599;SDS011;49747;51.334;6.830;2022-12-18T03:54:26;7.57;;;4.50;;
63599;SDS011;49747;51.334;6.830;2022-12-18T03:57:14;9.38;;;4.45;;
63599;SDS011;49747;51.334;6.830;2022-12-18T03:59:47;10.25;;;4.00;;
63599;SDS011;49747;51.334;6.830;2022-12-18T04:04:51;7.30;;;4.03;;
63599;SDS011;49747;51.334;6.830;2022-12-18T04:07:20;7.60;;;4.63;;
63599;SDS011;49747;51.334;6.830;2022-12-18T04:09:48;7.03;;;4.20;;
63599;SDS011;49747;51.334;6.830;2022-12-18T04:12:21;8.57;;;4.28;;
63599;SDS011;49747;51.334;6.830;2022-12-18T04:14:50;8.63;;;4.40;;
63599;SDS011;49747;51.334;6.830;2022-12-18T04:17:16;6.82;;;4.25;;
63599;SDS011;49747;51.334;6.830;2022-12-18T04:19:43;7.93;;;4.35;;
63599;SDS011;49747;51.334;6.830;2022-12-18T04:22:10;7.45;;;4.70;;
63599;SDS011;49747;51.334;6.830;2022-12-18T04:24:42;8.23;;;4.35;;
63599;SDS011;49747;51.334;6.830;2022-12-18T04:27:16;6.85;;;3.72;;
63599;SDS011;49747;51.334;6.830;2022-12-18T04:29:47;7.68;;;4.15;;
63599;SDS011;49747;51.334;6.830;2022-12-18T04:32:14;8.30;;;4.28;;
63599;SDS011;49747;51.334;6.830;2022-12-18T04:34:42;7.75;;;4.38;;
63599;SDS011;49747;51.334;6.830;2022-12-18T04:37:09;6.45;;;3.78;;
63599;SDS011;49747;51.334;6.830;2022-12-18T04:39:35;7.93;;;3.40;;
63599;SDS011;49747;51.334;6.830;2022-12-18T04:42:07;7.88;;;4.10;;
63599;SDS011;49747;51.334;6.830;2022-12-18T04:44:34;6.72;;;3.88;;
63599;SDS011;49747;51.334;6.830;2022-12-18T04:47:01;7.70;;;4.22;;
63599;SDS011;49747;51.334;6.830;2022-12-18T04:49:27;7.20;;;3.72;;
63599;SDS011;49747;51.334;6.830;2022-12-18T04:51:54;7.57;;;4.30;;
63599;SDS011;49747;51.334;6.830;2022-12-18T04:54:20;8.73;;;4.30;;
63599;SDS011;49747;51.334;6.830;2022-12-18T04:56:47;7.80;;;4.38;;
63599;SDS011;49747;51.334;6.830;2022-12-18T04:59:13;9.88;;;4.70;;
63599;SDS011;49747;51.334;6.830;2022-12-18T05:01:40;8.88;;;4.07;;
63599;SDS011;49747;51.334;6.830;2022-12-18T05:04:06;8.40;;;4.05;;
63599;SDS011;49747;51.334;6.830;2022-12-18T05:06:33;7.22;;;3.67;;
63599;SDS011;49747;51.334;6.830;2022-12-18T05:09:00;7.30;;;3.95;;
63599;SDS011;49747;51.334;6.830;2022-12-18T05:11:27;7.05;;;4.32;;
63599;SDS011;49747;51.334;6.830;2022-12-18T05:13:53;6.25;;;3.42;;
63599;SDS011;49747;51.334;6.830;2022-12-18T05:16:21;6.28;;;3.50;;
63599;SDS011;49747;51.334;6.830;2022-12-18T05:18:48;5.55;;;3.15;;
63599;SDS011;49747;51.334;6.830;2022-12-18T05:21:14;7.32;;;3.63;;
63599;SDS011;49747;51.334;6.830;2022-12-18T05:23:41;6.00;;;3.40;;
63599;SDS011;49747;51.334;6.830;2022-12-18T05:26:08;6.32;;;3.58;;
63599;SDS011;49747;51.334;6.830;2022-12-18T05:28:40;5.50;;;3.17;;
63599;SDS011;49747;51.334;6.830;2022-12-18T05:31:06;7.45;;;3.28;;
63599;SDS011;49747;51.334;6.830;2022-12-18T05:33:33;5.68;;;3.10;;
63599;SDS011;49747;51.334;6.830;2022-12-18T05:36:01;5.57;;;3.45;;
63599;SDS011;49747;51.334;6.830;2022-12-18T05:38:30;5.55;;;3.30;;
63599;SDS011;49747;51.334;6.830;2022-12-18T05:40:58;5.28;;;3.33;;
63599;SDS011;49747;51.334;6.830;2022-12-18T05:43:25;8.32;;;3.30;;
63599;SDS011;49747;51.334;6.830;2022-12-18T05:45:53;5.97;;;3.22;;
63599;SDS011;49747;51.334;6.830;2022-12-18T05:48:20;6.05;;;3.20;;
63599;SDS011;49747;51.334;6.830;2022-12-18T05:50:47;5.35;;;3.42;;
63599;SDS011;49747;51.334;6.830;2022-12-18T05:53:16;7.35;;;3.75;;
63599;SDS011;49747;51.334;6.830;2022-12-18T05:55:45;8.07;;;4.00;;
63599;SDS011;49747;51.334;6.830;2022-12-18T05:58:12;6.38;;;3.25;;
63599;SDS011;49747;51.334;6.830;2022-12-18T06:00:41;5.68;;;3.22;;
63599;SDS011;49747;51.334;6.830;2022-12-18T06:03:09;6.78;;;3.35;;
63599;SDS011;49747;51.334;6.830;2022-12-18T06:05:40;6.72;;;3.35;;
63599;SDS011;49747;51.334;6.830;2022-12-18T06:08:08;7.20;;;3.42;;
63599;SDS011;49747;51.334;6.830;2022-12-18T06:10:35;7.00;;;3.30;;
63599;SDS011;49747;51.334;6.830;2022-12-18T06:13:02;5.95;;;3.20;;
63599;SDS011;49747;51.334;6.830;2022-12-18T06:15:29;6.13;;;3.13;;
63599;SDS011;49747;51.334;6.830;2022-12-18T06:17:56;5.45;;;3.15;;
63599;SDS011;49747;51.334;6.830;2022-12-18T06:20:23;7.15;;;4.28;;
63599;SDS011;49747;51.334;6.830;2022-12-18T06:22:55;6.07;;;3.38;;
63599;SDS011;49747;51.334;6.830;2022-12-18T06:25:22;6.95;;;3.90;;
63599;SDS011;49747;51.334;6.830;2022-12-18T06:27:48;6.20;;;3.20;;
63599;SDS011;49747;51.334;6.830;2022-12-18T06:30:15;6.72;;;3.80;;
63599;SDS011;49747;51.334;6.830;2022-12-18T06:32:42;6.30;;;3.72;;
63599;SDS011;49747;51.334;6.830;2022-12-18T06:35:09;6.82;;;3.35;;
63599;SDS011;49747;51.334;6.830;2022-12-18T06:37:35;7.05;;;3.70;;
63599;SDS011;49747;51.334;6.830;2022-12-18T06:40:02;6.15;;;3.00;;
63599;SDS011;49747;51.334;6.830;2022-12-18T06:42:29;6.13;;;3.55;;
63599;SDS011;49747;51.334;6.830;2022-12-18T06:44:55;6.55;;;3.60;;
63599;SDS011;49747;51.334;6.830;2022-12-18T06:47:22;6.63;;;3.47;;
63599;SDS011;49747;51.334;6.830;2022-12-18T06:49:48;6.65;;;3.92;;
63599;SDS011;49747;51.334;6.830;2022-12-18T06:52:15;6.85;;;3.80;;
63599;SDS011;49747;51.334;6.830;2022-12-18T06:54:41;8.82;;;4.65;;
63599;SDS011;49747;51.334;6.830;2022-12-18T06:57:08;10.43;;;4.60;;
63599;SDS011;49747;51.334;6.830;2022-12-18T06:59:34;8.05;;;4.28;;
63599;SDS011;49747;51.334;6.830;2022-12-18T07:02:01;7.93;;;3.97;;
63599;SDS011;49747;51.334;6.830;2022-12-18T07:04:30;7.75;;;4.28;;
63599;SDS011;49747;51.334;6.830;2022-12-18T07:06:57;5.65;;;3.47;;
63599;SDS011;49747;51.334;6.830;2022-12-18T07:09:24;6.88;;;3.67;;
63599;SDS011;49747;51.334;6.830;2022-12-18T07:11:51;6.35;;;3.50;;
63599;SDS011;49747;51.334;6.830;2022-12-18T07:14:18;6.30;;;3.90;;
63599;SDS011;49747;51.334;6.830;2022-12-18T07:16:46;6.43;;;3.53;;
63599;SDS011;49747;51.334;6.830;2022-12-18T07:19:12;6.95;;;4.05;;
63599;SDS011;49747;51.334;6.830;2022-12-18T07:21:39;7.45;;;3.90;;
63599;SDS011;49747;51.334;6.830;2022-12-18T07:24:06;8.05;;;4.20;;
63599;SDS011;49747;51.334;6.830;2022-12-18T07:26:33;6.25;;;3.60;;
63599;SDS011;49747;51.334;6.830;2022-12-18T07:28:59;9.23;;;4.30;;
63599;SDS011;49747;51.334;6.830;2022-12-18T07:31:26;6.97;;;4.28;;
63599;SDS011;49747;51.334;6.830;2022-12-18T07:33:53;7.03;;;3.63;;
63599;SDS011;49747;51.334;6.830;2022-12-18T07:36:20;7.60;;;3.90;;
63599;SDS011;49747;51.334;6.830;2022-12-18T07:38:47;7.25;;;4.10;;
63599;SDS011;49747;51.334;6.830;2022-12-18T07:41:14;9.55;;;4.55;;
63599;SDS011;49747;51.334;6.830;2022-12-18T07:43:41;8.85;;;4.70;;
63599;SDS011;49747;51.334;6.830;2022-12-18T07:46:09;8.30;;;4.88;;
63599;SDS011;49747;51.334;6.830;2022-12-18T07:48:39;8.70;;;4.88;;
63599;SDS011;49747;51.334;6.830;2022-12-18T07:51:06;9.30;;;4.82;;
63599;SDS011;49747;51.334;6.830;2022-12-18T07:53:34;10.27;;;5.93;;
63599;SDS011;49747;51.334;6.830;2022-12-18T07:56:03;10.75;;;5.38;;
63599;SDS011;49747;51.334;6.830;2022-12-18T07:58:52;10.05;;;5.45;;
63599;SDS011;49747;51.334;6.830;2022-12-18T08:01:20;9.88;;;5.20;;
63599;SDS011;49747;51.334;6.830;2022-12-18T08:03:47;9.88;;;4.90;;
63599;SDS011;49747;51.334;6.830;2022-12-18T08:06:15;10.45;;;5.50;;
63599;SDS011;49747;51.334;6.830;2022-12-18T08:08:41;11.13;;;6.15;;
63599;SDS011;49747;51.334;6.830;2022-12-18T08:11:08;11.63;;;5.53;;
63599;SDS011;49747;51.334;6.830;2022-12-18T08:13:35;9.20;;;5.00;;
63599;SDS011;49747;51.334;6.830;2022-12-18T08:16:03;8.38;;;4.55;;
63599;SDS011;49747;51.334;6.830;2022-12-18T08:18:32;9.00;;;4.95;;
63599;SDS011;49747;51.334;6.830;2022-12-18T08:23:37;8.32;;;4.63;;
63599;SDS011;49747;51.334;6.830;2022-12-18T08:26:08;7.22;;;4.60;;
63599;SDS011;49747;51.334;6.830;2022-12-18T08:28:34;9.48;;;4.55;;
63599;SDS011;49747;51.334;6.830;2022-12-18T08:31:02;10.90;;;5.03;;
63599;SDS011;49747;51.334;6.830;2022-12-18T08:33:28;8.18;;;4.47;;
63599;SDS011;49747;51.334;6.830;2022-12-18T08:35:55;9.88;;;6.00;;
63599;SDS011;49747;51.334;6.830;2022-12-18T08:38:21;10.52;;;5.18;;
63599;SDS011;49747;51.334;6.830;2022-12-18T08:40:49;9.98;;;5.07;;
63599;SDS011;49747;51.334;6.830;2022-12-18T08:43:20;10.68;;;5.43;;
63599;SDS011;49747;51.334;6.830;2022-12-18T08:46:07;8.90;;;4.97;;
63599;SDS011;49747;51.334;6.830;2022-12-18T08:48:33;8.15;;;4.40;;
63599;SDS011;49747;51.334;6.830;2022-12-18T08:51:00;9.32;;;5.03;;
63599;SDS011;49747;51.334;6.830;2022-12-18T08:53:27;10.98;;;4.72;;
63599;SDS011;49747;51.334;6.830;2022-12-18T08:56:00;9.05;;;5.15;;
63599;SDS011;49747;51.334;6.830;2022-12-18T08:58:27;8.75;;;4.53;;
63599;SDS011;49747;51.334;6.830;2022-12-18T09:00:54;8.50;;;4.50;;
63599;SDS011;49747;51.334;6.830;2022-12-18T09:03:26;11.15;;;5.00;;
63599;SDS011;49747;51.334;6.830;2022-12-18T09:05:52;10.52;;;5.57;;
63599;SDS011;49747;51.334;6.830;2022-12-18T09:08:19;9.50;;;4.95;;
63599;SDS011;49747;51.334;6.830;2022-12-18T09:10:47;8.68;;;4.57;;
63599;SDS011;49747;51.334;6.830;2022-12-18T09:15:42;8.02;;;4.13;;
63599;SDS011;49747;51.334;6.830;2022-12-18T09:18:09;10.00;;;4.65;;
63599;SDS011;49747;51.334;6.830;2022-12-18T09:20:36;7.65;;;4.28;;
63599;SDS011;49747;51.334;6.830;2022-12-18T09:23:03;9.38;;;4.40;;
63599;SDS011;49747;51.334;6.830;2022-12-18T09:25:31;8.00;;;4.03;;
63599;SDS011;49747;51.334;6.830;2022-12-18T09:27:59;10.00;;;4.55;;
63599;SDS011;49747;51.334;6.830;2022-12-18T09:30:26;9.80;;;5.03;;
63599;SDS011;49747;51.334;6.830;2022-12-18T09:32:53;9.48;;;4.28;;
63599;SDS011;49747;51.334;6.830;2022-12-18T09:35:20;8.38;;;4.38;;
63599;SDS011;49747;51.334;6.830;2022-12-18T09:37:47;9.73;;;4.63;;
63599;SDS011;49747;51.334;6.830;2022-12-18T09:40:14;10.90;;;4.47;;
63599;SDS011;49747;51.334;6.830;2022-12-18T09:42:44;7.53;;;4.55;;
63599;SDS011;49747;51.334;6.830;2022-12-18T09:45:14;9.75;;;5.22;;
63599;SDS011;49747;51.334;6.830;2022-12-18T09:47:42;9.90;;;5.22;;
63599;SDS011;49747;51.334;6.830;2022-12-18T09:52:48;11.88;;;5.50;;
63599;SDS011;49747;51.334;6.830;2022-12-18T10:00:57;9.65;;;4.57;;
63599;SDS011;49747;51.334;6.830;2022-12-18T10:03:24;8.10;;;4.70;;
63599;SDS011;49747;51.334;6.830;2022-12-18T10:06:02;11.27;;;4.88;;
63599;SDS011;49747;51.334;6.830;2022-12-18T10:17:14;8.27;;;4.35;;
63599;SDS011;49747;51.334;6.830;2022-12-18T10:19:47;9.93;;;5.60;;
63599;SDS011;49747;51.334;6.830;2022-12-18T10:27:42;10.65;;;5.18;;
63599;SDS011;49747;51.334;6.830;2022-12-18T10:30:12;8.43;;;4.88;;
63599;SDS011;49747;51.334;6.830;2022-12-18T10:32:41;11.30;;;5.00;;
63599;SDS011;49747;51.334;6.830;2022-12-18T10:35:16;10.95;;;4.57;;
63599;SDS011;49747;51.334;6.830;2022-12-18T10:38:07;11.88;;;5.40;;
63599;SDS011;49747;51.334;6.830;2022-12-18T10:43:35;9.90;;;4.53;;
63599;SDS011;49747;51.334;6.830;2022-12-18T10:48:40;9.10;;;5.10;;
63599;SDS011;49747;51.334;6.830;2022-12-18T10:54:23;9.10;;;5.00;;
63599;SDS011;49747;51.334;6.830;2022-12-18T10:56:52;11.00;;;5.72;;
63599;SDS011;49747;51.334;6.830;2022-12-18T10:59:59;9.30;;;4.15;;
63599;SDS011;49747;51.334;6.830;2022-12-18T11:02:46;9.65;;;5.03;;
63599;SDS011;49747;51.334;6.830;2022-12-18T11:05:28;8.65;;;5.43;;
63599;SDS011;49747;51.334;6.830;2022-12-18T11:08:03;11.85;;;4.93;;
63599;SDS011;49747;51.334;6.830;2022-12-18T11:10:38;10.43;;;5.05;;
63599;SDS011;49747;51.334;6.830;2022-12-18T11:16:02;9.23;;;5.22;;
63599;SDS011;49747;51.334;6.830;2022-12-18T11:18:31;8.00;;;4.55;;
63599;SDS011;49747;51.334;6.830;2022-12-18T11:21:04;10.75;;;5.13;;
63599;SDS011;49747;51.334;6.830;2022-12-18T11:23:49;11.25;;;5.47;;
63599;SDS011;49747;51.334;6.830;2022-12-18T11:28:52;10.10;;;4.93;;
63599;SDS011;49747;51.334;6.830;2022-12-18T11:31:33;8.50;;;4.18;;
63599;SDS011;49747;51.334;6.830;2022-12-18T11:34:13;9.82;;;4.70;;
63599;SDS011;49747;51.334;6.830;2022-12-18T11:36:57;7.60;;;4.85;;
63599;SDS011;49747;51.334;6.830;2022-12-18T11:39:36;8.43;;;4.90;;
63599;SDS011;49747;51.334;6.830;2022-12-18T11:44:42;10.43;;;5.55;;
63599;SDS011;49747;51.334;6.830;2022-12-18T11:47:26;10.68;;;5.35;;
63599;SDS011;49747;51.334;6.830;2022-12-18T11:50:01;10.23;;;5.40;;
63599;SDS011;49747;51.334;6.830;2022-12-18T11:55:07;12.60;;;5.25;;
63599;SDS011;49747;51.334;6.830;2022-12-18T11:57:41;9.52;;;5.03;;
63599;SDS011;49747;51.334;6.830;2022-12-18T12:00:13;10.57;;;5.45;;
63599;SDS011;49747;51.334;6.830;2022-12-18T12:02:58;10.65;;;5.22;;
63599;SDS011;49747;51.334;6.830;2022-12-18T12:05:51;10.85;;;5.97;;
63599;SDS011;49747;51.334;6.830;2022-12-18T12:08:54;13.02;;;5.72;;
63599;SDS011;49747;51.334;6.830;2022-12-18T12:11:42;12.82;;;5.85;;
63599;SDS011;49747;51.334;6.830;2022-12-18T12:14:38;11.23;;;5.75;;
63599;SDS011;49747;51.334;6.830;2022-12-18T12:33:36;12.48;;;6.10;;
63599;SDS011;49747;51.334;6.830;2022-12-18T12:36:18;12.60;;;5.80;;
63599;SDS011;49747;51.334;6.830;2022-12-18T12:38:54;12.43;;;7.03;;
63599;SDS011;49747;51.334;6.830;2022-12-18T12:41:24;14.95;;;6.78;;
63599;SDS011;49747;51.334;6.830;2022-12-18T12:44:17;12.40;;;6.32;;
63599;SDS011;49747;51.334;6.830;2022-12-18T12:47:15;11.32;;;5.55;;
63599;SDS011;49747;51.334;6.830;2022-12-18T12:49:47;12.05;;;6.82;;
63599;SDS011;49747;51.334;6.830;2022-12-18T12:52:35;10.95;;;6.78;;
63599;SDS011;49747;51.334;6.830;2022-12-18T12:55:12;12.15;;;6.68;;
63599;SDS011;49747;51.334;6.830;2022-12-18T12:57:46;13.85;;;7.35;;
63599;SDS011;49747;51.334;6.830;2022-12-18T13:00:21;11.90;;;6.80;;
63599;SDS011;49747;51.334;6.830;2022-12-18T13:05:30;15.85;;;7.25;;
63599;SDS011;49747;51.334;6.830;2022-12-18T13:08:09;14.65;;;5.95;;
63599;SDS011;49747;51.334;6.830;2022-12-18T13:13:11;12.00;;;7.10;;
63599;SDS011;49747;51.334;6.830;2022-12-18T13:18:22;13.10;;;6.95;;
63599;SDS011;49747;51.334;6.830;2022-12-18T13:23:35;13.02;;;6.78;;
63599;SDS011;49747;51.334;6.830;2022-12-18T13:31:13;13.60;;;7.32;;
63599;SDS011;49747;51.334;6.830;2022-12-18T13:33:45;16.60;;;8.27;;
63599;SDS011;49747;51.334;6.830;2022-12-18T13:36:33;16.90;;;7.20;;
63599;SDS011;49747;51.334;6.830;2022-12-18T13:44:34;16.23;;;7.93;;
63599;SDS011;49747;51.334;6.830;2022-12-18T13:49:59;16.95;;;8.13;;
63599;SDS011;49747;51.334;6.830;2022-12-18T13:52:28;13.48;;;8.38;;
63599;SDS011;49747;51.334;6.830;2022-12-18T13:55:00;14.50;;;6.95;;
63599;SDS011;49747;51.334;6.830;2022-12-18T13:57:29;16.13;;;8.15;;
63599;SDS011;49747;51.334;6.830;2022-12-18T13:59:56;18.17;;;8.55;;
63599;SDS011;49747;51.334;6.830;2022-12-18T14:02:24;13.48;;;7.30;;
63599;SDS011;49747;51.334;6.830;2022-12-18T14:04:54;15.65;;;7.85;;
63599;SDS011;49747;51.334;6.830;2022-12-18T14:07:22;17.83;;;8.75;;
63599;SDS011;49747;51.334;6.830;2022-12-18T14:09:52;16.88;;;8.40;;
63599;SDS011;49747;51.334;6.830;2022-12-18T14:12:44;16.20;;;8.05;;
63599;SDS011;49747;51.334;6.830;2022-12-18T14:20:50;16.42;;;8.48;;
63599;SDS011;49747;51.334;6.830;2022-12-18T14:26:03;18.63;;;8.95;;
63599;SDS011;49747;51.334;6.830;2022-12-18T14:28:47;16.23;;;8.60;;
63599;SDS011;49747;51.334;6.830;2022-12-18T14:31:17;15.45;;;8.25;;
63599;SDS011;49747;51.334;6.830;2022-12-18T14:33:45;15.70;;;8.45;;
63599;SDS011;49747;51.334;6.830;2022-12-18T14:36:16;15.45;;;9.18;;
63599;SDS011;49747;51.334;6.830;2022-12-18T14:38:47;16.05;;;8.45;;
63599;SDS011;49747;51.334;6.830;2022-12-18T14:41:20;18.27;;;9.35;;
63599;SDS011;49747;51.334;6.830;2022-12-18T14:43:48;16.10;;;8.85;;
63599;SDS011;49747;51.334;6.830;2022-12-18T14:49:00;19.98;;;9.23;;
63599;SDS011;49747;51.334;6.830;2022-12-18T14:51:32;16.55;;;8.70;;
63599;SDS011;49747;51.334;6.830;2022-12-18T14:54:04;16.15;;;9.57;;
63599;SDS011;49747;51.334;6.830;2022-12-18T14:56:47;17.88;;;10.00;;
63599;SDS011;49747;51.334;6.830;2022-12-18T15:07:05;19.95;;;10.25;;
63599;SDS011;49747;51.334;6.830;2022-12-18T15:09:38;19.20;;;9.55;;
63599;SDS011;49747;51.334;6.830;2022-12-18T15:14:50;16.48;;;9.02;;
63599;SDS011;49747;51.334;6.830;2022-12-18T15:17:19;19.67;;;9.68;;
63599;SDS011;49747;51.334;6.830;2022-12-18T15:19:51;17.60;;;9.80;;
63599;SDS011;49747;51.334;6.830;2022-12-18T15:22:26;18.52;;;9.30;;
63599;SDS011;49747;51.334;6.830;2022-12-18T15:24:55;20.60;;;9.32;;
63599;SDS011;49747;51.334;6.830;2022-12-18T15:30:11;16.80;;;9.18;;
63599;SDS011;49747;51.334;6.830;2022-12-18T15:32:44;18.92;;;9.38;;
63599;SDS011;49747;51.334;6.830;2022-12-18T15:37:37;18.13;;;9.65;;
63599;SDS011;49747;51.334;6.830;2022-12-18T15:40:05;18.52;;;9.32;;
63599;SDS011;49747;51.334;6.830;2022-12-18T15:42:32;20.63;;;9.57;;
63599;SDS011;49747;51.334;6.830;2022-12-18T15:45:17;20.05;;;9.50;;
63599;SDS011;49747;51.334;6.830;2022-12-18T15:47:45;18.95;;;10.40;;
63599;SDS011;49747;51.334;6.830;2022-12-18T15:50:11;18.17;;;9.32;;
63599;SDS011;49747;51.334;6.830;2022-12-18T15:52:43;16.83;;;10.35;;
63599;SDS011;49747;51.334;6.830;2022-12-18T15:55:12;21.27;;;10.35;;
63599;SDS011;49747;51.334;6.830;2022-12-18T15:57:58;21.48;;;10.63;;
63599;SDS011;49747;51.334;6.830;2022-12-18T16:00:26;18.45;;;9.57;;
63599;SDS011;49747;51.334;6.830;2022-12-18T16:02:53;17.17;;;9.90;;
63599;SDS011;49747;51.334;6.830;2022-12-18T16:05:20;17.70;;;10.18;;
63599;SDS011;49747;51.334;6.830;2022-12-18T16:07:48;20.63;;;10.52;;
63599;SDS011;49747;51.334;6.830;2022-12-18T16:10:14;19.65;;;10.95;;
63599;SDS011;49747;51.334;6.830;2022-12-18T16:12:41;19.80;;;10.45;;
63599;SDS011;49747;51.334;6.830;2022-12-18T16:15:09;19.17;;;9.85;;
63599;SDS011;49747;51.334;6.830;2022-12-18T16:17:40;19.73;;;10.35;;
63599;SDS011;49747;51.334;6.830;2022-12-18T16:20:13;25.58;;;12.57;;
63599;SDS011;49747;51.334;6.830;2022-12-18T16:22:42;21.50;;;10.88;;
63599;SDS011;49747;51.334;6.830;2022-12-18T16:25:30;19.77;;;10.13;;
63599;SDS011;49747;51.334;6.830;2022-12-18T16:27:57;24.15;;;10.60;;
63599;SDS011;49747;51.334;6.830;2022-12-18T16:30:25;21.05;;;11.63;;
63599;SDS011;49747;51.334;6.830;2022-12-18T16:33:03;20.92;;;11.75;;
63599;SDS011;49747;51.334;6.830;2022-12-18T16:35:30;22.85;;;11.15;;
63599;SDS011;49747;51.334;6.830;2022-12-18T16:37:58;20.58;;;10.38;;
63599;SDS011;49747;51.334;6.830;2022-12-18T16:40:25;22.30;;;11.07;;
63599;SDS011;49747;51.334;6.830;2022-12-18T16:42:51;23.55;;;11.18;;
63599;SDS011;49747;51.334;6.830;2022-12-18T16:45:18;22.15;;;12.30;;
63599;SDS011;49747;51.334;6.830;2022-12-18T16:47:45;24.67;;;11.20;;
63599;SDS011;49747;51.334;6.830;2022-12-18T16:50:11;23.35;;;11.40;;
63599;SDS011;49747;51.334;6.830;2022-12-18T16:52:38;22.05;;;11.95;;
63599;SDS011;49747;51.334;6.830;2022-12-18T16:55:05;24.08;;;12.13;;
63599;SDS011;49747;51.334;6.830;2022-12-18T16:57:32;20.45;;;11.77;;
63599;SDS011;49747;51.334;6.830;2022-12-18T16:59:59;24.92;;;12.70;;
63599;SDS011;49747;51.334;6.830;2022-12-18T17:02:30;23.35;;;12.45;;
63599;SDS011;49747;51.334;6.830;2022-12-18T17:04:58;25.15;;;12.13;;
63599;SDS011;49747;51.334;6.830;2022-12-18T17:07:25;22.88;;;12.30;;
63599;SDS011;49747;51.334;6.830;2022-12-18T17:09:53;24.73;;;12.05;;
63599;SDS011;49747;51.334;6.830;2022-12-18T17:12:20;24.55;;;12.98;;
63599;SDS011;49747;51.334;6.830;2022-12-18T17:14:46;25.88;;;11.65;;
63599;SDS011;49747;51.334;6.830;2022-12-18T17:17:14;25.17;;;13.20;;